• Join FlightAware (Why Join?)
  • Login
  • US Flag 
07:33PM EDT


 

Airport Tracker/Info


-or-


 

Live Flight TrackerFlight Track Log ✈ SKW5408 ✈ 21-Jul-2013 ✈ KORD - KMKG

Flight Track Log - Related Links

Times and Time Zones

All times are in EDT time to prevent confusion due to time zone crossing. See the SKW5408 flight status page for this flight to view local times or setup timezone preferences in your user account.

Time Position Orientation Groundspeed Altitude Reporting Facility
EDT Latitude Longitude Course Direction KTS MPH feet Rate Location/Type
10:54AM 41.9333 -87.8833 13° North 186 214 2,400  Level Chicago TRACON
10:55AM 41.9333 -87.8167 90° East 244 281 4,800 2,820 Climbing Chicago TRACON
10:56AM 41.9539 -87.7061 76° East 276 318 8,300 2,940 Climbing Chicago Center
10:57AM 42.3827 -87.7670 20° North  Level FlightAware Approximate
10:57AM 42.0303 -87.6933 North 289 333 11,600  Level Chicago Center
10:58AM 42.4871 -87.7359 North  Level FlightAware Approximate
10:58AM 42.1097 -87.6972 358° North 288 331 14,600  Level Chicago Center
10:59AM 42.5919 -87.7044 13° North  Level FlightAware Approximate
11:00AM 42.6965 -87.6714 13° North  Level FlightAware Approximate
11:00AM 42.2172 -87.7033 358° North 324 373 15,000  Level Chicago Center
11:01AM 42.3194 -87.7103 357° North 363 418 15,000  Level Chicago Center
11:02AM 42.4208 -87.6694 17° North 380 437 15,000  Level Chicago Center
11:03AM 42.5231 -87.6333 15° North 382 440 15,000  Level Chicago Center
11:04AM 42.6375 -87.6019 11° North 373 429 15,100  Climbing Chicago Center
11:05AM 42.7406 -87.5781 10° North 375 432 15,100  Level Chicago Center
11:06AM 42.8178 -87.4872 41° Northeast 392 451 15,100 -540 Level Chicago Center
11:07AM 42.8619 -87.3317 69° East 398 458 14,100 -1,260 Descending Chicago Center
11:08AM 42.8994 -87.1956 69° East 387 445 12,500 -1,500 Descending Chicago Center
11:09AM 42.9356 -87.0714 68° East 355 409 11,000 -1,500 Descending Chicago Center
11:10AM 42.9658 -86.9636 69° East 311 358 9,500 -1,500 Descending Chicago Center
11:11AM 43.0089 -86.8697 58° Northeast 294 338 8,000 -1,500 Descending Chicago Center
11:12AM 43.0594 -86.7900 49° Northeast 282 325 6,500 -1,440 Descending Chicago Center
11:13AM 43.1100 -86.7153 47° Northeast 269 310 5,100 -1,260 Descending Chicago Center
11:14AM 43.1689 -86.6328 46° Northeast 256 295 4,000 -540 Descending Chicago Center
11:15AM 43.2144 -86.5700 45° Northeast 242 278 4,000 -540 Level Chicago Center
11:16AM 43.2325 -86.4853 74° East 237 273 3,000 -840 Descending Chicago Center
11:17AM 43.2403 -86.4050 82° East 222 255 2,300 -360 Descending Chicago Center
11:18AM 43.2378 -86.3417 93° East 186 214 2,300 -180 Level Chicago Center
11:19AM 43.2228 -86.3000 116° Southeast 153 176 2,000 -600 Descending Chicago Center
11:20AM 43.1922 -86.2597 136° Southeast 133 153 1,100 -660 Descending Chicago Center
11:21AM 43.1694 -86.2306 137° Southeast 130 150 700 -420 Descending Chicago Center